Aviation Digital Data Service (ADDS)

Output produced by METARs form (1736 UTC 03 June 2020)
found at http://www.aviationweather.gov/metar/data/
 
METAR text: LTAC 031720Z VRB02KT 9999 SCT040 SCT100 18/03 Q1010 NOSIG RMK RWY21L 07003KT RWY03L 00000KT RWY21R VRB01KT
Conditions at: LTAC (ANKARA/ESENBOGA , TR) observed 1720 UTC 03 June 2020
Temperature: 18.0°C (64°F)
Dewpoint: 3.0°C (37°F) [RH = 37%]
Pressure (altimeter): 29.82 inches Hg (1010.0 mb)
Winds: variable direction winds at 2 MPH (2 knots; 1.0 m/s)
Visibility: 6 or more miles (10+ km)
Ceiling: at least 12,000 feet AGL
Clouds: scattered clouds at 4000 feet AGL
scattered clouds at 10000 feet AGL
Weather: no significant weather observed at this time

METAR text: LTAC 031650Z 00000KT 9999 SCT040 SCT100 19/04 Q1010 NOSIG RMK RWY21L VRB02KT RWY03L 00000KT RWY21R 00000KT
Conditions at: LTAC (ANKARA/ESENBOGA , TR) observed 1650 UTC 03 June 2020
Temperature: 19.0°C (66°F)
Dewpoint: 4.0°C (39°F) [RH = 37%]
Pressure (altimeter): 29.82 inches Hg (1010.0 mb)
Winds: calm
Visibility: 6 or more miles (10+ km)
Ceiling: at least 12,000 feet AGL
Clouds: scattered clouds at 4000 feet AGL
scattered clouds at 10000 feet AGL
Weather: no significant weather observed at this time

METAR text: LTAC 031620Z 28005KT 9999 SCT040 SCT100 19/05 Q1010 NOSIG RMK RWY21L 30004KT RWY03L 31003KT RWY21R 32004KT 290V350
Conditions at: LTAC (ANKARA/ESENBOGA , TR) observed 1620 UTC 03 June 2020
Temperature: 19.0°C (66°F)
Dewpoint: 5.0°C (41°F) [RH = 40%]
Pressure (altimeter): 29.82 inches Hg (1010.0 mb)
Winds: from the W (280 degrees) at 6 MPH (5 knots; 2.6 m/s)
Visibility: 6 or more miles (10+ km)
Ceiling: at least 12,000 feet AGL
Clouds: scattered clouds at 4000 feet AGL
scattered clouds at 10000 feet AGL
Weather: no significant weather observed at this time

METAR text: LTAC 031550Z 28005KT 9999 SCT040 SCT100 19/05 Q1010 NOSIG RMK RWY21L 28007KT 240V300 RWY03L 31004KT 280V340 RWY21R 29004KT 250V320
Conditions at: LTAC (ANKARA/ESENBOGA , TR) observed 1550 UTC 03 June 2020
Temperature: 19.0°C (66°F)
Dewpoint: 5.0°C (41°F) [RH = 40%]
Pressure (altimeter): 29.82 inches Hg (1010.0 mb)
Winds: from the W (280 degrees) at 6 MPH (5 knots; 2.6 m/s)
Visibility: 6 or more miles (10+ km)
Ceiling: at least 12,000 feet AGL
Clouds: scattered clouds at 4000 feet AGL
scattered clouds at 10000 feet AGL
Weather: no significant weather observed at this time

METAR text: LTAC 031520Z 24005KT 9999 SCT040 SCT100 19/02 Q1009 NOSIG RMK RWY21L 24005KT 180V270 RWY03L 22005KT 190V250 RWY21R 23005KT 180V270
Conditions at: LTAC (ANKARA/ESENBOGA , TR) observed 1520 UTC 03 June 2020
Temperature: 19.0°C (66°F)
Dewpoint: 2.0°C (36°F) [RH = 32%]
Pressure (altimeter): 29.79 inches Hg (1009.0 mb)
Winds: from the WSW (240 degrees) at 6 MPH (5 knots; 2.6 m/s)
Visibility: 6 or more miles (10+ km)
Ceiling: at least 12,000 feet AGL
Clouds: scattered clouds at 4000 feet AGL
scattered clouds at 10000 feet AGL
Weather: no significant weather observed at this time

METAR text: LTAC 031450Z 24008KT 9999 SCT040 SCT100 20/03 Q1009 NOSIG RMK RWY21L 22008KT 190V250 RWY03L VRB04KT RWY21R 25008KT
Conditions at: LTAC (ANKARA/ESENBOGA , TR) observed 1450 UTC 03 June 2020
Temperature: 20.0°C (68°F)
Dewpoint: 3.0°C (37°F) [RH = 32%]
Pressure (altimeter): 29.79 inches Hg (1009.0 mb)
Winds: from the WSW (240 degrees) at 9 MPH (8 knots; 4.1 m/s)
Visibility: 6 or more miles (10+ km)
Ceiling: at least 12,000 feet AGL
Clouds: scattered clouds at 4000 feet AGL
scattered clouds at 10000 feet AGL
Weather: no significant weather observed at this time

METAR text: LTAC 031420Z 25009KT 9999 SCT040 SCT100 20/02 Q1009 NOSIG RMK RWY21L 23008KT RWY03L 24007KT RWY21R 23008KT
Conditions at: LTAC (ANKARA/ESENBOGA , TR) observed 1420 UTC 03 June 2020
Temperature: 20.0°C (68°F)
Dewpoint: 2.0°C (36°F) [RH = 30%]
Pressure (altimeter): 29.79 inches Hg (1009.0 mb)
Winds: from the WSW (250 degrees) at 10 MPH (9 knots; 4.6 m/s)
Visibility: 6 or more miles (10+ km)
Ceiling: at least 12,000 feet AGL
Clouds: scattered clouds at 4000 feet AGL
scattered clouds at 10000 feet AGL
Weather: no significant weather observed at this time

METAR text: LTAC 031350Z 21008KT 9999 SCT040 SCT100 20/02 Q1009 NOSIG RMK RWY21L 20009KT 170V230 RWY03L 21006KT 170V250 RWY21R 21009KT
Conditions at: LTAC (ANKARA/ESENBOGA , TR) observed 1350 UTC 03 June 2020
Temperature: 20.0°C (68°F)
Dewpoint: 2.0°C (36°F) [RH = 30%]
Pressure (altimeter): 29.79 inches Hg (1009.0 mb)
Winds: from the SSW (210 degrees) at 9 MPH (8 knots; 4.1 m/s)
Visibility: 6 or more miles (10+ km)
Ceiling: at least 12,000 feet AGL
Clouds: scattered clouds at 4000 feet AGL
scattered clouds at 10000 feet AGL
Weather: no significant weather observed at this time

METAR text: LTAC 031320Z 23009KT 9999 SCT040 SCT100 20/03 Q1010 NOSIG RMK RWY21L 23010KT 180V270 RWY03L 23008KT 180V270 RWY21R 24011KT 200V290
Conditions at: LTAC (ANKARA/ESENBOGA , TR) observed 1320 UTC 03 June 2020
Temperature: 20.0°C (68°F)
Dewpoint: 3.0°C (37°F) [RH = 32%]
Pressure (altimeter): 29.82 inches Hg (1010.0 mb)
Winds: from the SW (230 degrees) at 10 MPH (9 knots; 4.6 m/s)
Visibility: 6 or more miles (10+ km)
Ceiling: at least 12,000 feet AGL
Clouds: scattered clouds at 4000 feet AGL
scattered clouds at 10000 feet AGL
Weather: no significant weather observed at this time

METAR text: LTAC 031250Z 24009KT 9999 SCT040 SCT100 20/03 Q1010 NOSIG RMK RWY21L 23005KT 160V280 RWY03L 26007KT 220V290 RWY21R 24006KT 200V310
Conditions at: LTAC (ANKARA/ESENBOGA , TR) observed 1250 UTC 03 June 2020
Temperature: 20.0°C (68°F)
Dewpoint: 3.0°C (37°F) [RH = 32%]
Pressure (altimeter): 29.82 inches Hg (1010.0 mb)
Winds: from the WSW (240 degrees) at 10 MPH (9 knots; 4.6 m/s)
Visibility: 6 or more miles (10+ km)
Ceiling: at least 12,000 feet AGL
Clouds: scattered clouds at 4000 feet AGL
scattered clouds at 10000 feet AGL
Weather: no significant weather observed at this time

METAR text: LTAC 031220Z 27011KT 230V300 9999 SCT040 SCT100 19/02 Q1010 NOSIG RMK RWY21L 25012KT 220V280 RWY03L 26008KT 220V310 RWY21R 25011KT
Conditions at: LTAC (ANKARA/ESENBOGA , TR) observed 1220 UTC 03 June 2020
Temperature: 19.0°C (66°F)
Dewpoint: 2.0°C (36°F) [RH = 32%]
Pressure (altimeter): 29.82 inches Hg (1010.0 mb)
Winds: from the W (270 degrees) at 13 MPH (11 knots; 5.7 m/s)
Visibility: 6 or more miles (10+ km)
Ceiling: at least 12,000 feet AGL
Clouds: scattered clouds at 4000 feet AGL
scattered clouds at 10000 feet AGL
Weather: no significant weather observed at this time

METAR text: LTAC 031150Z 26012KT 190V290 9999 SCT040 SCT100 20/02 Q1010 NOSIG RMK RWY21L 24013KT 200V260 RWY03L VRB08KT RWY21R 25012KT 220V290
Conditions at: LTAC (ANKARA/ESENBOGA , TR) observed 1150 UTC 03 June 2020
Temperature: 20.0°C (68°F)
Dewpoint: 2.0°C (36°F) [RH = 30%]
Pressure (altimeter): 29.82 inches Hg (1010.0 mb)
Winds: from the W (260 degrees) at 14 MPH (12 knots; 6.2 m/s)
Visibility: 6 or more miles (10+ km)
Ceiling: at least 12,000 feet AGL
Clouds: scattered clouds at 4000 feet AGL
scattered clouds at 10000 feet AGL
Weather: no significant weather observed at this time

METAR text: LTAC 031120Z 24012KT 9999 SCT040 SCT100 19/03 Q1010 NOSIG RMK RWY21L 25013KT 210V280 RWY03L 24010KT 190V280 RWY21R 23012KT 200V260
Conditions at: LTAC (ANKARA/ESENBOGA , TR) observed 1120 UTC 03 June 2020
Temperature: 19.0°C (66°F)
Dewpoint: 3.0°C (37°F) [RH = 34%]
Pressure (altimeter): 29.82 inches Hg (1010.0 mb)
Winds: from the WSW (240 degrees) at 14 MPH (12 knots; 6.2 m/s)
Visibility: 6 or more miles (10+ km)
Ceiling: at least 12,000 feet AGL
Clouds: scattered clouds at 4000 feet AGL
scattered clouds at 10000 feet AGL
Weather: no significant weather observed at this time

METAR text: LTAC 031050Z 24011KT 9999 SCT040 SCT100 18/03 Q1010 NOSIG RMK RWY21L 24012KT RWY03L 22008KT 180V290 RWY21R 22010KT 190V260
Conditions at: LTAC (ANKARA/ESENBOGA , TR) observed 1050 UTC 03 June 2020
Temperature: 18.0°C (64°F)
Dewpoint: 3.0°C (37°F) [RH = 37%]
Pressure (altimeter): 29.82 inches Hg (1010.0 mb)
Winds: from the WSW (240 degrees) at 13 MPH (11 knots; 5.7 m/s)
Visibility: 6 or more miles (10+ km)
Ceiling: at least 12,000 feet AGL
Clouds: scattered clouds at 4000 feet AGL
scattered clouds at 10000 feet AGL
Weather: no significant weather observed at this time

METAR text: LTAC 031020Z 21008KT 9999 SCT040 SCT100 19/05 Q1010 NOSIG RMK RWY21L 22008KT 190V260 RWY03L 21006KT 130V270 RWY21R 23009KT 200V260
Conditions at: LTAC (ANKARA/ESENBOGA , TR) observed 1020 UTC 03 June 2020
Temperature: 19.0°C (66°F)
Dewpoint: 5.0°C (41°F) [RH = 40%]
Pressure (altimeter): 29.82 inches Hg (1010.0 mb)
Winds: from the SSW (210 degrees) at 9 MPH (8 knots; 4.1 m/s)
Visibility: 6 or more miles (10+ km)
Ceiling: at least 12,000 feet AGL
Clouds: scattered clouds at 4000 feet AGL
scattered clouds at 10000 feet AGL
Weather: no significant weather observed at this time

METAR text: LTAC 030950Z 26010KT 9999 SCT040 SCT100 18/04 Q1010 NOSIG RMK RWY21L 23008KT 180V260 RWY03L 25007KT 180V280 RWY21R 25009KT 220V310
Conditions at: LTAC (ANKARA/ESENBOGA , TR) observed 0950 UTC 03 June 2020
Temperature: 18.0°C (64°F)
Dewpoint: 4.0°C (39°F) [RH = 39%]
Pressure (altimeter): 29.82 inches Hg (1010.0 mb)
Winds: from the W (260 degrees) at 12 MPH (10 knots; 5.1 m/s)
Visibility: 6 or more miles (10+ km)
Ceiling: at least 12,000 feet AGL
Clouds: scattered clouds at 4000 feet AGL
scattered clouds at 10000 feet AGL
Weather: no significant weather observed at this time

METAR text: LTAC 030920Z 21008KT 9999 SCT040 SCT100 19/05 Q1010 NOSIG RMK RWY21L 26010KT 210V320 RWY03L 20008KT 150V260 RWY21R 25008KT 190V290
Conditions at: LTAC (ANKARA/ESENBOGA , TR) observed 0920 UTC 03 June 2020
Temperature: 19.0°C (66°F)
Dewpoint: 5.0°C (41°F) [RH = 40%]
Pressure (altimeter): 29.82 inches Hg (1010.0 mb)
Winds: from the SSW (210 degrees) at 9 MPH (8 knots; 4.1 m/s)
Visibility: 6 or more miles (10+ km)
Ceiling: at least 12,000 feet AGL
Clouds: scattered clouds at 4000 feet AGL
scattered clouds at 10000 feet AGL
Weather: no significant weather observed at this time

METAR text: LTAC 030850Z 26005KT 9999 SCT040 SCT100 16/04 Q1011 NOSIG RMK RWY21L 23008KT 170V270 RWY03L 26004KT 220V340 RWY21R 26007KT 230V310
Conditions at: LTAC (ANKARA/ESENBOGA , TR) observed 0850 UTC 03 June 2020
Temperature: 16.0°C (61°F)
Dewpoint: 4.0°C (39°F) [RH = 45%]
Pressure (altimeter): 29.85 inches Hg (1011.0 mb)
Winds: from the W (260 degrees) at 6 MPH (5 knots; 2.6 m/s)
Visibility: 6 or more miles (10+ km)
Ceiling: at least 12,000 feet AGL
Clouds: scattered clouds at 4000 feet AGL
scattered clouds at 10000 feet AGL
Weather: no significant weather observed at this time

METAR text: LTAC 030820Z 28006KT 9999 SCT035 SCT100 17/06 Q1010 NOSIG RMK RWY21L 23007KT 210V270 RWY03L 25004KT 170V330 RWY21R 23007KT 200V270
Conditions at: LTAC (ANKARA/ESENBOGA , TR) observed 0820 UTC 03 June 2020
Temperature: 17.0°C (63°F)
Dewpoint: 6.0°C (43°F) [RH = 48%]
Pressure (altimeter): 29.82 inches Hg (1010.0 mb)
Winds: from the W (280 degrees) at 7 MPH (6 knots; 3.1 m/s)
Visibility: 6 or more miles (10+ km)
Ceiling: at least 12,000 feet AGL
Clouds: scattered clouds at 3500 feet AGL
scattered clouds at 10000 feet AGL
Weather: no significant weather observed at this time

METAR text: LTAC 030750Z 23005KT 180V320 9999 SCT035 SCT100 16/06 Q1010 NOSIG RMK RWY21L VRB04KT RWY03L VRB03KT RWY21R 22006KT 200V260
Conditions at: LTAC (ANKARA/ESENBOGA , TR) observed 0750 UTC 03 June 2020
Temperature: 16.0°C (61°F)
Dewpoint: 6.0°C (43°F) [RH = 51%]
Pressure (altimeter): 29.82 inches Hg (1010.0 mb)
Winds: from the SW (230 degrees) at 6 MPH (5 knots; 2.6 m/s)
Visibility: 6 or more miles (10+ km)
Ceiling: at least 12,000 feet AGL
Clouds: scattered clouds at 3500 feet AGL
scattered clouds at 10000 feet AGL
Weather: no significant weather observed at this time

METAR text: LTAC 030720Z VRB04KT 9999 SCT035 SCT100 15/07 Q1010 NOSIG RMK RWY21L VRB05KT RWY03L 22005KT 190V260 RWY21R 25006KT 220V300
Conditions at: LTAC (ANKARA/ESENBOGA , TR) observed 0720 UTC 03 June 2020
Temperature: 15.0°C (59°F)
Dewpoint: 7.0°C (45°F) [RH = 59%]
Pressure (altimeter): 29.82 inches Hg (1010.0 mb)
Winds: variable direction winds at 5 MPH (4 knots; 2.1 m/s)
Visibility: 6 or more miles (10+ km)
Ceiling: at least 12,000 feet AGL
Clouds: scattered clouds at 3500 feet AGL
scattered clouds at 10000 feet AGL
Weather: no significant weather observed at this time

METAR text: LTAC 030650Z VRB02KT 9999 SCT025 SCT100 15/06 Q1010 NOSIG RMK RWY21L VRB02KT RWY03L 25004KT 170V280 RWY21R VRB03KT
Conditions at: LTAC (ANKARA/ESENBOGA , TR) observed 0650 UTC 03 June 2020
Temperature: 15.0°C (59°F)
Dewpoint: 6.0°C (43°F) [RH = 55%]
Pressure (altimeter): 29.82 inches Hg (1010.0 mb)
Winds: variable direction winds at 2 MPH (2 knots; 1.0 m/s)
Visibility: 6 or more miles (10+ km)
Ceiling: at least 12,000 feet AGL
Clouds: scattered clouds at 2500 feet AGL
scattered clouds at 10000 feet AGL
Weather: no significant weather observed at this time

METAR text: LTAC 030620Z VRB03KT 9999 SCT025 SCT100 14/07 Q1010 NOSIG RMK RWY21L VRB04KT RWY03L 13003KT 060V190 RWY21R 20005KT 140V290
Conditions at: LTAC (ANKARA/ESENBOGA , TR) observed 0620 UTC 03 June 2020
Temperature: 14.0°C (57°F)
Dewpoint: 7.0°C (45°F) [RH = 63%]
Pressure (altimeter): 29.82 inches Hg (1010.0 mb)
Winds: variable direction winds at 3 MPH (3 knots; 1.5 m/s)
Visibility: 6 or more miles (10+ km)
Ceiling: at least 12,000 feet AGL
Clouds: scattered clouds at 2500 feet AGL
scattered clouds at 10000 feet AGL
Weather: no significant weather observed at this time

METAR text: LTAC 030550Z VRB01KT 9999 SCT025 SCT100 13/08 Q1010 NOSIG RMK RWY21L VRB03KT RWY03L 16003KT 100V220 RWY21R 24003KT 130V300
Conditions at: LTAC (ANKARA/ESENBOGA , TR) observed 0550 UTC 03 June 2020
Temperature: 13.0°C (55°F)
Dewpoint: 8.0°C (46°F) [RH = 72%]
Pressure (altimeter): 29.82 inches Hg (1010.0 mb)
Winds: variable direction winds at 1 MPH (1 knots; 0.5 m/s)
Visibility: 6 or more miles (10+ km)
Ceiling: at least 12,000 feet AGL
Clouds: scattered clouds at 2500 feet AGL
scattered clouds at 10000 feet AGL
Weather: no significant weather observed at this time

METAR text: LTAC 030520Z 21004KT 170V260 9999 SCT040 SCT100 12/07 Q1010 NOSIG RMK RWY21L VRB02KT RWY03L VRB02KT RWY21R VRB01KT
Conditions at: LTAC (ANKARA/ESENBOGA , TR) observed 0520 UTC 03 June 2020
Temperature: 12.0°C (54°F)
Dewpoint: 7.0°C (45°F) [RH = 71%]
Pressure (altimeter): 29.82 inches Hg (1010.0 mb)
Winds: from the SSW (210 degrees) at 5 MPH (4 knots; 2.1 m/s)
Visibility: 6 or more miles (10+ km)
Ceiling: at least 12,000 feet AGL
Clouds: scattered clouds at 4000 feet AGL
scattered clouds at 10000 feet AGL
Weather: no significant weather observed at this time

METAR text: LTAC 030450Z 22003KT 150V310 9999 FEW040 SCT100 12/07 Q1010 NOSIG RMK RWY21L VRB01KT RWY03L VRB02KT RWY21R 20003KT 160V270
Conditions at: LTAC (ANKARA/ESENBOGA , TR) observed 0450 UTC 03 June 2020
Temperature: 12.0°C (54°F)
Dewpoint: 7.0°C (45°F) [RH = 71%]
Pressure (altimeter): 29.82 inches Hg (1010.0 mb)
Winds: from the SW (220 degrees) at 3 MPH (3 knots; 1.5 m/s)
Visibility: 6 or more miles (10+ km)
Ceiling: at least 12,000 feet AGL
Clouds: few clouds at 4000 feet AGL
scattered clouds at 10000 feet AGL
Weather: no significant weather observed at this time

METAR text: LTAC 030420Z VRB01KT 9999 FEW040 SCT100 11/07 Q1010 NOSIG RMK RWY21L VRB01KT RWY03L VRB01KT RWY21R VRB02KT
Conditions at: LTAC (ANKARA/ESENBOGA , TR) observed 0420 UTC 03 June 2020
Temperature: 11.0°C (52°F)
Dewpoint: 7.0°C (45°F) [RH = 76%]
Pressure (altimeter): 29.82 inches Hg (1010.0 mb)
Winds: variable direction winds at 1 MPH (1 knots; 0.5 m/s)
Visibility: 6 or more miles (10+ km)
Ceiling: at least 12,000 feet AGL
Clouds: few clouds at 4000 feet AGL
scattered clouds at 10000 feet AGL
Weather: no significant weather observed at this time

METAR text: LTAC 030350Z 00000KT 9999 FEW040 SCT100 10/07 Q1010 NOSIG RMK RWY21L 00000KT RWY03L 00000KT RWY21R VRB02KT
Conditions at: LTAC (ANKARA/ESENBOGA , TR) observed 0350 UTC 03 June 2020
Temperature: 10.0°C (50°F)
Dewpoint: 7.0°C (45°F) [RH = 82%]
Pressure (altimeter): 29.82 inches Hg (1010.0 mb)
Winds: calm
Visibility: 6 or more miles (10+ km)
Ceiling: at least 12,000 feet AGL
Clouds: few clouds at 4000 feet AGL
scattered clouds at 10000 feet AGL
Weather: no significant weather observed at this time

METAR text: LTAC 030320Z 00000KT 9999 FEW040 08/07 Q1010 NOSIG RMK RWY21L 00000KT RWY03L 00000KT RWY21R 00000KT
Conditions at: LTAC (ANKARA/ESENBOGA , TR) observed 0320 UTC 03 June 2020
Temperature: 8.0°C (46°F)
Dewpoint: 7.0°C (45°F) [RH = 93%]
Pressure (altimeter): 29.82 inches Hg (1010.0 mb)
Winds: calm
Visibility: 6 or more miles (10+ km)
Ceiling: at least 12,000 feet AGL
Clouds: few clouds at 4000 feet AGL
Weather: no significant weather observed at this time

METAR text: LTAC 030250Z 22004KT 9999 FEW040 SCT100 08/07 Q1009 NOSIG RMK RWY21L 14004KT RWY03L 26003KT RWY21R VRB02KT
Conditions at: LTAC (ANKARA/ESENBOGA , TR) observed 0250 UTC 03 June 2020
Temperature: 8.0°C (46°F)
Dewpoint: 7.0°C (45°F) [RH = 93%]
Pressure (altimeter): 29.79 inches Hg (1009.0 mb)
Winds: from the SW (220 degrees) at 5 MPH (4 knots; 2.1 m/s)
Visibility: 6 or more miles (10+ km)
Ceiling: at least 12,000 feet AGL
Clouds: few clouds at 4000 feet AGL
scattered clouds at 10000 feet AGL
Weather: no significant weather observed at this time

METAR text: LTAC 030220Z 18003KT 150V230 9999 SCT040 SCT100 08/06 Q1009 NOSIG RMK RWY21L 17004KT RWY03L 22002KT RWY21R 02002KT
Conditions at: LTAC (ANKARA/ESENBOGA , TR) observed 0220 UTC 03 June 2020
Temperature: 8.0°C (46°F)
Dewpoint: 6.0°C (43°F) [RH = 87%]
Pressure (altimeter): 29.79 inches Hg (1009.0 mb)
Winds: from the S (180 degrees) at 3 MPH (3 knots; 1.5 m/s)
Visibility: 6 or more miles (10+ km)
Ceiling: at least 12,000 feet AGL
Clouds: scattered clouds at 4000 feet AGL
scattered clouds at 10000 feet AGL
Weather: no significant weather observed at this time

METAR text: LTAC 030150Z 20005KT 9999 SCT040 SCT100 09/07 Q1009 NOSIG RMK RWY21L VRB01KT RWY03L 24003KT 180V320 RWY21R VRB02KT
Conditions at: LTAC (ANKARA/ESENBOGA , TR) observed 0150 UTC 03 June 2020
Temperature: 9.0°C (48°F)
Dewpoint: 7.0°C (45°F) [RH = 87%]
Pressure (altimeter): 29.79 inches Hg (1009.0 mb)
Winds: from the SSW (200 degrees) at 6 MPH (5 knots; 2.6 m/s)
Visibility: 6 or more miles (10+ km)
Ceiling: at least 12,000 feet AGL
Clouds: scattered clouds at 4000 feet AGL
scattered clouds at 10000 feet AGL
Weather: no significant weather observed at this time

METAR text: LTAC 030120Z 17005KT 9999 SCT040 SCT100 10/08 Q1009 NOSIG RMK RWY21L VRB01KT RWY03L 17003KT RWY21R VRB01KT
Conditions at: LTAC (ANKARA/ESENBOGA , TR) observed 0120 UTC 03 June 2020
Temperature: 10.0°C (50°F)
Dewpoint: 8.0°C (46°F) [RH = 87%]
Pressure (altimeter): 29.79 inches Hg (1009.0 mb)
Winds: from the S (170 degrees) at 6 MPH (5 knots; 2.6 m/s)
Visibility: 6 or more miles (10+ km)
Ceiling: at least 12,000 feet AGL
Clouds: scattered clouds at 4000 feet AGL
scattered clouds at 10000 feet AGL
Weather: no significant weather observed at this time

METAR text: LTAC 030050Z VRB01KT 9999 SCT040 SCT100 09/07 Q1008 NOSIG RMK RWY21L 16004KT RWY03L 16002KT RWY21R 13002KT
Conditions at: LTAC (ANKARA/ESENBOGA , TR) observed 0050 UTC 03 June 2020
Temperature: 9.0°C (48°F)
Dewpoint: 7.0°C (45°F) [RH = 87%]
Pressure (altimeter): 29.76 inches Hg (1008.0 mb)
Winds: variable direction winds at 1 MPH (1 knots; 0.5 m/s)
Visibility: 6 or more miles (10+ km)
Ceiling: at least 12,000 feet AGL
Clouds: scattered clouds at 4000 feet AGL
scattered clouds at 10000 feet AGL
Weather: no significant weather observed at this time

METAR text: LTAC 030020Z 20003KT 9999 SCT040 SCT100 09/07 Q1009 NOSIG RMK RWY21L 14003KT RWY03L 20002KT RWY21R VRB01KT
Conditions at: LTAC (ANKARA/ESENBOGA , TR) observed 0020 UTC 03 June 2020
Temperature: 9.0°C (48°F)
Dewpoint: 7.0°C (45°F) [RH = 87%]
Pressure (altimeter): 29.79 inches Hg (1009.0 mb)
Winds: from the SSW (200 degrees) at 3 MPH (3 knots; 1.5 m/s)
Visibility: 6 or more miles (10+ km)
Ceiling: at least 12,000 feet AGL
Clouds: scattered clouds at 4000 feet AGL
scattered clouds at 10000 feet AGL
Weather: no significant weather observed at this time

METAR text: LTAC 022350Z 00000KT 9999 SCT040 SCT100 09/06 Q1009 NOSIG RMK RWY21L 00000KT RWY03L 24001KT RWY21R VRB01KT
Conditions at: LTAC (ANKARA/ESENBOGA , TR) observed 2350 UTC 02 June 2020
Temperature: 9.0°C (48°F)
Dewpoint: 6.0°C (43°F) [RH = 81%]
Pressure (altimeter): 29.79 inches Hg (1009.0 mb)
Winds: calm
Visibility: 6 or more miles (10+ km)
Ceiling: at least 12,000 feet AGL
Clouds: scattered clouds at 4000 feet AGL
scattered clouds at 10000 feet AGL
Weather: no significant weather observed at this time

METAR text: LTAC 022320Z 29004KT 9999 SCT040 SCT100 09/07 Q1009 NOSIG RMK RWY21L VRB01KT RWY03L 26002KT RWY21R 01003KT 340V050
Conditions at: LTAC (ANKARA/ESENBOGA , TR) observed 2320 UTC 02 June 2020
Temperature: 9.0°C (48°F)
Dewpoint: 7.0°C (45°F) [RH = 87%]
Pressure (altimeter): 29.79 inches Hg (1009.0 mb)
Winds: from the WNW (290 degrees) at 5 MPH (4 knots; 2.1 m/s)
Visibility: 6 or more miles (10+ km)
Ceiling: at least 12,000 feet AGL
Clouds: scattered clouds at 4000 feet AGL
scattered clouds at 10000 feet AGL
Weather: no significant weather observed at this time

METAR text: LTAC 022250Z VRB02KT 9999 SCT040 SCT100 09/07 Q1009 NOSIG RMK RWY21L 00000KT RWY03L 00000KT RWY21R VRB01KT
Conditions at: LTAC (ANKARA/ESENBOGA , TR) observed 2250 UTC 02 June 2020
Temperature: 9.0°C (48°F)
Dewpoint: 7.0°C (45°F) [RH = 87%]
Pressure (altimeter): 29.79 inches Hg (1009.0 mb)
Winds: variable direction winds at 2 MPH (2 knots; 1.0 m/s)
Visibility: 6 or more miles (10+ km)
Ceiling: at least 12,000 feet AGL
Clouds: scattered clouds at 4000 feet AGL
scattered clouds at 10000 feet AGL
Weather: no significant weather observed at this time

METAR text: LTAC 022220Z 27004KT 9999 SCT040 SCT100 10/07 Q1009 NOSIG RMK RWY21L 00000KT RWY03L 26003KT RWY21R VRB02KT
Conditions at: LTAC (ANKARA/ESENBOGA , TR) observed 2220 UTC 02 June 2020
Temperature: 10.0°C (50°F)
Dewpoint: 7.0°C (45°F) [RH = 82%]
Pressure (altimeter): 29.79 inches Hg (1009.0 mb)
Winds: from the W (270 degrees) at 5 MPH (4 knots; 2.1 m/s)
Visibility: 6 or more miles (10+ km)
Ceiling: at least 12,000 feet AGL
Clouds: scattered clouds at 4000 feet AGL
scattered clouds at 10000 feet AGL
Weather: no significant weather observed at this time

METAR text: LTAC 022150Z 26004KT 9999 SCT040 SCT100 10/07 Q1009 NOSIG RMK RWY21L 18004KT 150V220 RWY03L 23002KT RWY21R 21005KT 170V230
Conditions at: LTAC (ANKARA/ESENBOGA , TR) observed 2150 UTC 02 June 2020
Temperature: 10.0°C (50°F)
Dewpoint: 7.0°C (45°F) [RH = 82%]
Pressure (altimeter): 29.79 inches Hg (1009.0 mb)
Winds: from the W (260 degrees) at 5 MPH (4 knots; 2.1 m/s)
Visibility: 6 or more miles (10+ km)
Ceiling: at least 12,000 feet AGL
Clouds: scattered clouds at 4000 feet AGL
scattered clouds at 10000 feet AGL
Weather: no significant weather observed at this time

METAR text: LTAC 022120Z 20002KT 9999 SCT040 SCT100 11/07 Q1009 NOSIG RMK RWY21L 17003KT RWY03L 20001KT RWY21R VRB02KT
Conditions at: LTAC (ANKARA/ESENBOGA , TR) observed 2120 UTC 02 June 2020
Temperature: 11.0°C (52°F)
Dewpoint: 7.0°C (45°F) [RH = 76%]
Pressure (altimeter): 29.79 inches Hg (1009.0 mb)
Winds: from the SSW (200 degrees) at 2 MPH (2 knots; 1.0 m/s)
Visibility: 6 or more miles (10+ km)
Ceiling: at least 12,000 feet AGL
Clouds: scattered clouds at 4000 feet AGL
scattered clouds at 10000 feet AGL
Weather: no significant weather observed at this time

METAR text: LTAC 022050Z 26003KT 230V330 9999 SCT040 SCT100 11/07 Q1009 NOSIG RMK RWY21L VRB01KT RWY03L 27003KT 240V300 RWY21R VRB02KT
Conditions at: LTAC (ANKARA/ESENBOGA , TR) observed 2050 UTC 02 June 2020
Temperature: 11.0°C (52°F)
Dewpoint: 7.0°C (45°F) [RH = 76%]
Pressure (altimeter): 29.79 inches Hg (1009.0 mb)
Winds: from the W (260 degrees) at 3 MPH (3 knots; 1.5 m/s)
Visibility: 6 or more miles (10+ km)
Ceiling: at least 12,000 feet AGL
Clouds: scattered clouds at 4000 feet AGL
scattered clouds at 10000 feet AGL
Weather: no significant weather observed at this time

METAR text: LTAC 022020Z 00000KT 9999 SCT040 SCT100 11/07 Q1009 NOSIG
Conditions at: LTAC (ANKARA/ESENBOGA , TR) observed 2020 UTC 02 June 2020
Temperature: 11.0°C (52°F)
Dewpoint: 7.0°C (45°F) [RH = 76%]
Pressure (altimeter): 29.79 inches Hg (1009.0 mb)
Winds: calm
Visibility: 6 or more miles (10+ km)
Ceiling: at least 12,000 feet AGL
Clouds: scattered clouds at 4000 feet AGL
scattered clouds at 10000 feet AGL
Weather: no significant weather observed at this time

METAR text: LTAC 021950Z 25004KT 9999 FEW040 SCT100 12/08 Q1008 NOSIG
Conditions at: LTAC (ANKARA/ESENBOGA , TR) observed 1950 UTC 02 June 2020
Temperature: 12.0°C (54°F)
Dewpoint: 8.0°C (46°F) [RH = 76%]
Pressure (altimeter): 29.76 inches Hg (1008.0 mb)
Winds: from the WSW (250 degrees) at 5 MPH (4 knots; 2.1 m/s)
Visibility: 6 or more miles (10+ km)
Ceiling: at least 12,000 feet AGL
Clouds: few clouds at 4000 feet AGL
scattered clouds at 10000 feet AGL
Weather: no significant weather observed at this time

METAR text: LTAC 021920Z 00000KT 9999 FEW040 SCT100 13/07 Q1008 NOSIG
Conditions at: LTAC (ANKARA/ESENBOGA , TR) observed 1920 UTC 02 June 2020
Temperature: 13.0°C (55°F)
Dewpoint: 7.0°C (45°F) [RH = 67%]
Pressure (altimeter): 29.76 inches Hg (1008.0 mb)
Winds: calm
Visibility: 6 or more miles (10+ km)
Ceiling: at least 12,000 feet AGL
Clouds: few clouds at 4000 feet AGL
scattered clouds at 10000 feet AGL
Weather: no significant weather observed at this time

METAR text: LTAC 021850Z 00000KT 9999 SCT040 SCT100 13/07 Q1008 NOSIG
Conditions at: LTAC (ANKARA/ESENBOGA , TR) observed 1850 UTC 02 June 2020
Temperature: 13.0°C (55°F)
Dewpoint: 7.0°C (45°F) [RH = 67%]
Pressure (altimeter): 29.76 inches Hg (1008.0 mb)
Winds: calm
Visibility: 6 or more miles (10+ km)
Ceiling: at least 12,000 feet AGL
Clouds: scattered clouds at 4000 feet AGL
scattered clouds at 10000 feet AGL
Weather: no significant weather observed at this time

METAR text: LTAC 021820Z 28004KT 260V320 9999 SCT040 SCT100 13/07 Q1008 NOSIG
Conditions at: LTAC (ANKARA/ESENBOGA , TR) observed 1820 UTC 02 June 2020
Temperature: 13.0°C (55°F)
Dewpoint: 7.0°C (45°F) [RH = 67%]
Pressure (altimeter): 29.76 inches Hg (1008.0 mb)
Winds: from the W (280 degrees) at 5 MPH (4 knots; 2.1 m/s)
Visibility: 6 or more miles (10+ km)
Ceiling: at least 12,000 feet AGL
Clouds: scattered clouds at 4000 feet AGL
scattered clouds at 10000 feet AGL
Weather: no significant weather observed at this time

METAR text: LTAC 021750Z 26007KT 9999 SCT040 SCT100 14/07 Q1007 NOSIG
Conditions at: LTAC (ANKARA/ESENBOGA , TR) observed 1750 UTC 02 June 2020
Temperature: 14.0°C (57°F)
Dewpoint: 7.0°C (45°F) [RH = 63%]
Pressure (altimeter): 29.73 inches Hg (1007.0 mb)
Winds: from the W (260 degrees) at 8 MPH (7 knots; 3.6 m/s)
Visibility: 6 or more miles (10+ km)
Ceiling: at least 12,000 feet AGL
Clouds: scattered clouds at 4000 feet AGL
scattered clouds at 10000 feet AGL
Weather: no significant weather observed at this time

METAR text: LTAC 021720Z 26008KT 9999 SCT040 SCT100 15/07 Q1007 NOSIG
Conditions at: LTAC (ANKARA/ESENBOGA , TR) observed 1720 UTC 02 June 2020
Temperature: 15.0°C (59°F)
Dewpoint: 7.0°C (45°F) [RH = 59%]
Pressure (altimeter): 29.73 inches Hg (1007.0 mb)
Winds: from the W (260 degrees) at 9 MPH (8 knots; 4.1 m/s)
Visibility: 6 or more miles (10+ km)
Ceiling: at least 12,000 feet AGL
Clouds: scattered clouds at 4000 feet AGL
scattered clouds at 10000 feet AGL
Weather: no significant weather observed at this time

METAR text: LTAC 021650Z 25008KT 9999 SCT040 SCT100 16/06 Q1006 NOSIG
Conditions at: LTAC (ANKARA/ESENBOGA , TR) observed 1650 UTC 02 June 2020
Temperature: 16.0°C (61°F)
Dewpoint: 6.0°C (43°F) [RH = 51%]
Pressure (altimeter): 29.70 inches Hg (1006.0 mb)
Winds: from the WSW (250 degrees) at 9 MPH (8 knots; 4.1 m/s)
Visibility: 6 or more miles (10+ km)
Ceiling: at least 12,000 feet AGL
Clouds: scattered clouds at 4000 feet AGL
scattered clouds at 10000 feet AGL
Weather: no significant weather observed at this time

METAR text: LTAC 021620Z 27009KT 9999 SCT040 SCT100 17/06 Q1006 NOSIG
Conditions at: LTAC (ANKARA/ESENBOGA , TR) observed 1620 UTC 02 June 2020
Temperature: 17.0°C (63°F)
Dewpoint: 6.0°C (43°F) [RH = 48%]
Pressure (altimeter): 29.70 inches Hg (1006.0 mb)
Winds: from the W (270 degrees) at 10 MPH (9 knots; 4.6 m/s)
Visibility: 6 or more miles (10+ km)
Ceiling: at least 12,000 feet AGL
Clouds: scattered clouds at 4000 feet AGL
scattered clouds at 10000 feet AGL
Weather: no significant weather observed at this time

METAR text: LTAC 021550Z 26010KT 9999 SCT040 SCT100 18/04 Q1006 NOSIG
Conditions at: LTAC (ANKARA/ESENBOGA , TR) observed 1550 UTC 02 June 2020
Temperature: 18.0°C (64°F)
Dewpoint: 4.0°C (39°F) [RH = 39%]
Pressure (altimeter): 29.70 inches Hg (1006.0 mb)
Winds: from the W (260 degrees) at 12 MPH (10 knots; 5.1 m/s)
Visibility: 6 or more miles (10+ km)
Ceiling: at least 12,000 feet AGL
Clouds: scattered clouds at 4000 feet AGL
scattered clouds at 10000 feet AGL
Weather: no significant weather observed at this time

METAR text: LTAC 021520Z 28010KT 9999 SCT040 SCT100 18/04 Q1006 NOSIG RMK RWY21L 25012KT RWY03L 27008KT RWY21R 27010KT 250V310
Conditions at: LTAC (ANKARA/ESENBOGA , TR) observed 1520 UTC 02 June 2020
Temperature: 18.0°C (64°F)
Dewpoint: 4.0°C (39°F) [RH = 39%]
Pressure (altimeter): 29.70 inches Hg (1006.0 mb)
Winds: from the W (280 degrees) at 12 MPH (10 knots; 5.1 m/s)
Visibility: 6 or more miles (10+ km)
Ceiling: at least 12,000 feet AGL
Clouds: scattered clouds at 4000 feet AGL
scattered clouds at 10000 feet AGL
Weather: no significant weather observed at this time

METAR text: LTAC 021450Z 28010KT 250V320 9999 FEW040 SCT100 19/03 Q1006 NOSIG RMK RWY21L 28011KT RWY03L 28008KT 230V320 RWY21R 28009KT 250V330
Conditions at: LTAC (ANKARA/ESENBOGA , TR) observed 1450 UTC 02 June 2020
Temperature: 19.0°C (66°F)
Dewpoint: 3.0°C (37°F) [RH = 34%]
Pressure (altimeter): 29.70 inches Hg (1006.0 mb)
Winds: from the W (280 degrees) at 12 MPH (10 knots; 5.1 m/s)
Visibility: 6 or more miles (10+ km)
Ceiling: at least 12,000 feet AGL
Clouds: few clouds at 4000 feet AGL
scattered clouds at 10000 feet AGL
Weather: no significant weather observed at this time

METAR text: LTAC 021420Z 29009KT 260V320 9999 FEW040 SCT100 19/05 Q1006 NOSIG RMK RWY21L 28010KT 250V310 RWY03L 29006KT 240V320 RWY21R 29009KT 270V340
Conditions at: LTAC (ANKARA/ESENBOGA , TR) observed 1420 UTC 02 June 2020
Temperature: 19.0°C (66°F)
Dewpoint: 5.0°C (41°F) [RH = 40%]
Pressure (altimeter): 29.70 inches Hg (1006.0 mb)
Winds: from the WNW (290 degrees) at 10 MPH (9 knots; 4.6 m/s)
Visibility: 6 or more miles (10+ km)
Ceiling: at least 12,000 feet AGL
Clouds: few clouds at 4000 feet AGL
scattered clouds at 10000 feet AGL
Weather: no significant weather observed at this time

METAR text: LTAC 021350Z 28012KT 9999 FEW040 SCT100 19/05 Q1006 NOSIG RMK RWY21L 27010KT 230V290 RWY03L 28008KT 240V330 RWY21R 28008KT 250V310
Conditions at: LTAC (ANKARA/ESENBOGA , TR) observed 1350 UTC 02 June 2020
Temperature: 19.0°C (66°F)
Dewpoint: 5.0°C (41°F) [RH = 40%]
Pressure (altimeter): 29.70 inches Hg (1006.0 mb)
Winds: from the W (280 degrees) at 14 MPH (12 knots; 6.2 m/s)
Visibility: 6 or more miles (10+ km)
Ceiling: at least 12,000 feet AGL
Clouds: few clouds at 4000 feet AGL
scattered clouds at 10000 feet AGL
Weather: no significant weather observed at this time

METAR text: LTAC 021320Z 28011KT 250V310 9999 SCT040 SCT100 19/06 Q1006 NOSIG RMK RWY21L 28013KT 250V310 RWY03L 27010KT RWY21R 29010KT 250V330
Conditions at: LTAC (ANKARA/ESENBOGA , TR) observed 1320 UTC 02 June 2020
Temperature: 19.0°C (66°F)
Dewpoint: 6.0°C (43°F) [RH = 43%]
Pressure (altimeter): 29.70 inches Hg (1006.0 mb)
Winds: from the W (280 degrees) at 13 MPH (11 knots; 5.7 m/s)
Visibility: 6 or more miles (10+ km)
Ceiling: at least 12,000 feet AGL
Clouds: scattered clouds at 4000 feet AGL
scattered clouds at 10000 feet AGL
Weather: no significant weather observed at this time

METAR text: LTAC 021250Z 27015KT 9999 SCT040 SCT100 19/06 Q1006 NOSIG RMK RWY21L 26014KT RWY03L 27012KT 240V300 RWY21R 28010KT 240V320
Conditions at: LTAC (ANKARA/ESENBOGA , TR) observed 1250 UTC 02 June 2020
Temperature: 19.0°C (66°F)
Dewpoint: 6.0°C (43°F) [RH = 43%]
Pressure (altimeter): 29.70 inches Hg (1006.0 mb)
Winds: from the W (270 degrees) at 17 MPH (15 knots; 7.7 m/s)
Visibility: 6 or more miles (10+ km)
Ceiling: at least 12,000 feet AGL
Clouds: scattered clouds at 4000 feet AGL
scattered clouds at 10000 feet AGL
Weather: no significant weather observed at this time

METAR text: LTAC 021220Z 25011KT 220V290 9999 SCT040 SCT100 19/04 Q1006 NOSIG RMK RWY21L 25013KT 210V270 RWY03L 24011KT 210V280 RWY21R 25011KT 220V280
Conditions at: LTAC (ANKARA/ESENBOGA , TR) observed 1220 UTC 02 June 2020
Temperature: 19.0°C (66°F)
Dewpoint: 4.0°C (39°F) [RH = 37%]
Pressure (altimeter): 29.70 inches Hg (1006.0 mb)
Winds: from the WSW (250 degrees) at 13 MPH (11 knots; 5.7 m/s)
Visibility: 6 or more miles (10+ km)
Ceiling: at least 12,000 feet AGL
Clouds: scattered clouds at 4000 feet AGL
scattered clouds at 10000 feet AGL
Weather: no significant weather observed at this time

METAR text: LTAC 021150Z 24014KT 210V280 9999 SCT040 SCT100 19/03 Q1006 BECMG TL1250 VRB02KT
Conditions at: LTAC (ANKARA/ESENBOGA , TR) observed 1150 UTC 02 June 2020
Temperature: 19.0°C (66°F)
Dewpoint: 3.0°C (37°F) [RH = 34%]
Pressure (altimeter): 29.70 inches Hg (1006.0 mb)
Winds: from the WSW (240 degrees) at 16 MPH (14 knots; 7.2 m/s)
Visibility: 6 or more miles (10+ km)
Ceiling: at least 12,000 feet AGL
Clouds: scattered clouds at 4000 feet AGL
scattered clouds at 10000 feet AGL
Weather: no significant weather observed at this time

METAR text: LTAC 021120Z 21011KT 180V240 9999 SCT040 SCT100 19/04 Q1006 NOSIG RMK RWY21L 21011KT 170V290 RWY03L 23010KT 190V250 RWY21R 25012KT
Conditions at: LTAC (ANKARA/ESENBOGA , TR) observed 1120 UTC 02 June 2020
Temperature: 19.0°C (66°F)
Dewpoint: 4.0°C (39°F) [RH = 37%]
Pressure (altimeter): 29.70 inches Hg (1006.0 mb)
Winds: from the SSW (210 degrees) at 13 MPH (11 knots; 5.7 m/s)
Visibility: 6 or more miles (10+ km)
Ceiling: at least 12,000 feet AGL
Clouds: scattered clouds at 4000 feet AGL
scattered clouds at 10000 feet AGL
Weather: no significant weather observed at this time

METAR text: LTAC 021050Z 22010KT 190V260 9999 SCT040 BKN100 18/04 Q1006 NOSIG RMK RWY21L 18009KT 130V220 RWY03L 23009KT 170V260 RWY21R 22012KT
Conditions at: LTAC (ANKARA/ESENBOGA , TR) observed 1050 UTC 02 June 2020
Temperature: 18.0°C (64°F)
Dewpoint: 4.0°C (39°F) [RH = 39%]
Pressure (altimeter): 29.70 inches Hg (1006.0 mb)
Winds: from the SW (220 degrees) at 12 MPH (10 knots; 5.1 m/s)
Visibility: 6 or more miles (10+ km)
Ceiling: 10000 feet AGL
Clouds: scattered clouds at 4000 feet AGL
broken clouds at 10000 feet AGL
Weather: no significant weather observed at this time

METAR text: LTAC 021020Z 23009KT 9999 SCT040 BKN100 17/05 Q1007 NOSIG RMK RWY21L 20008KT 170V240 RWY03L 21008KT 170V230 RWY21R 22009KT 190V250
Conditions at: LTAC (ANKARA/ESENBOGA , TR) observed 1020 UTC 02 June 2020
Temperature: 17.0°C (63°F)
Dewpoint: 5.0°C (41°F) [RH = 45%]
Pressure (altimeter): 29.73 inches Hg (1007.0 mb)
Winds: from the SW (230 degrees) at 10 MPH (9 knots; 4.6 m/s)
Visibility: 6 or more miles (10+ km)
Ceiling: 10000 feet AGL
Clouds: scattered clouds at 4000 feet AGL
broken clouds at 10000 feet AGL
Weather: no significant weather observed at this time

METAR text: LTAC 020950Z 20007KT 150V240 9999 SCT040 BKN100 17/06 Q1007 NOSIG RMK RWY21L 22008KT 180V280 RWY03L 22006KT 150V260 RWY21R 24008KT 200V270
Conditions at: LTAC (ANKARA/ESENBOGA , TR) observed 0950 UTC 02 June 2020
Temperature: 17.0°C (63°F)
Dewpoint: 6.0°C (43°F) [RH = 48%]
Pressure (altimeter): 29.73 inches Hg (1007.0 mb)
Winds: from the SSW (200 degrees) at 8 MPH (7 knots; 3.6 m/s)
Visibility: 6 or more miles (10+ km)
Ceiling: 10000 feet AGL
Clouds: scattered clouds at 4000 feet AGL
broken clouds at 10000 feet AGL
Weather: no significant weather observed at this time

METAR text: LTAC 020920Z 20008KT 170V230 9999 SCT040 BKN100 17/05 Q1007 NOSIG RMK RWY21L 20008KT 160V240 RWY03L 20007KT 150V300 RWY21R 19009KT 150V230
Conditions at: LTAC (ANKARA/ESENBOGA , TR) observed 0920 UTC 02 June 2020
Temperature: 17.0°C (63°F)
Dewpoint: 5.0°C (41°F) [RH = 45%]
Pressure (altimeter): 29.73 inches Hg (1007.0 mb)
Winds: from the SSW (200 degrees) at 9 MPH (8 knots; 4.1 m/s)
Visibility: 6 or more miles (10+ km)
Ceiling: 10000 feet AGL
Clouds: scattered clouds at 4000 feet AGL
broken clouds at 10000 feet AGL
Weather: no significant weather observed at this time

METAR text: LTAC 020850Z 22007KT 170V240 9999 SCT030 BKN100 17/05 Q1007 NOSIG RMK RWY21L 19007KT 150V220 RWY03L 22007KT 180V250 RWY21R 20008KT 160V240
Conditions at: LTAC (ANKARA/ESENBOGA , TR) observed 0850 UTC 02 June 2020
Temperature: 17.0°C (63°F)
Dewpoint: 5.0°C (41°F) [RH = 45%]
Pressure (altimeter): 29.73 inches Hg (1007.0 mb)
Winds: from the SW (220 degrees) at 8 MPH (7 knots; 3.6 m/s)
Visibility: 6 or more miles (10+ km)
Ceiling: 10000 feet AGL
Clouds: scattered clouds at 3000 feet AGL
broken clouds at 10000 feet AGL
Weather: no significant weather observed at this time

METAR text: LTAC 020820Z 22008KT 170V250 9999 SCT030 BKN100 16/06 Q1008 NOSIG RMK RWY21L 17004KT 110V240 RWY03L 19006KT 070V240 RWY21R 21006KT 160V280
Conditions at: LTAC (ANKARA/ESENBOGA , TR) observed 0820 UTC 02 June 2020
Temperature: 16.0°C (61°F)
Dewpoint: 6.0°C (43°F) [RH = 51%]
Pressure (altimeter): 29.76 inches Hg (1008.0 mb)
Winds: from the SW (220 degrees) at 9 MPH (8 knots; 4.1 m/s)
Visibility: 6 or more miles (10+ km)
Ceiling: 10000 feet AGL
Clouds: scattered clouds at 3000 feet AGL
broken clouds at 10000 feet AGL
Weather: no significant weather observed at this time

METAR text: LTAC 020750Z 23008KT 9999 SCT030 BKN100 15/07 Q1008 NOSIG RMK RWY21L 19008KT 140V240 RWY03L 24007KT RWY21R 23006KT 190V260
Conditions at: LTAC (ANKARA/ESENBOGA , TR) observed 0750 UTC 02 June 2020
Temperature: 15.0°C (59°F)
Dewpoint: 7.0°C (45°F) [RH = 59%]
Pressure (altimeter): 29.76 inches Hg (1008.0 mb)
Winds: from the SW (230 degrees) at 9 MPH (8 knots; 4.1 m/s)
Visibility: 6 or more miles (10+ km)
Ceiling: 10000 feet AGL
Clouds: scattered clouds at 3000 feet AGL
broken clouds at 10000 feet AGL
Weather: no significant weather observed at this time

METAR text: LTAC 020720Z 16006KT 110V210 9999 SCT030 BKN100 15/07 Q1008 NOSIG RMK RWY21L 18006KT 130V250 RWY03L 17005KT 120V230 RWY21R 18006KT 140V250
Conditions at: LTAC (ANKARA/ESENBOGA , TR) observed 0720 UTC 02 June 2020
Temperature: 15.0°C (59°F)
Dewpoint: 7.0°C (45°F) [RH = 59%]
Pressure (altimeter): 29.76 inches Hg (1008.0 mb)
Winds: from the SSE (160 degrees) at 7 MPH (6 knots; 3.1 m/s)
Visibility: 6 or more miles (10+ km)
Ceiling: 10000 feet AGL
Clouds: scattered clouds at 3000 feet AGL
broken clouds at 10000 feet AGL
Weather: no significant weather observed at this time

METAR text: LTAC 020650Z 19007KT 150V230 9999 SCT025 SCT080 15/07 Q1009 NOSIG RMK RWY21L 19005KT 130V230 RWY03L 22006KT 190V250 RWY21R 22006KT 180V240
Conditions at: LTAC (ANKARA/ESENBOGA , TR) observed 0650 UTC 02 June 2020
Temperature: 15.0°C (59°F)
Dewpoint: 7.0°C (45°F) [RH = 59%]
Pressure (altimeter): 29.79 inches Hg (1009.0 mb)
Winds: from the S (190 degrees) at 8 MPH (7 knots; 3.6 m/s)
Visibility: 6 or more miles (10+ km)
Ceiling: at least 12,000 feet AGL
Clouds: scattered clouds at 2500 feet AGL
scattered clouds at 8000 feet AGL
Weather: no significant weather observed at this time

METAR text: LTAC 020620Z 23008KT 9999 SCT025 SCT080 13/07 Q1008 NOSIG RMK RWY21L 17005KT 110V240 RWY03L 21006KT RWY21R 23006KT 170V270
Conditions at: LTAC (ANKARA/ESENBOGA , TR) observed 0620 UTC 02 June 2020
Temperature: 13.0°C (55°F)
Dewpoint: 7.0°C (45°F) [RH = 67%]
Pressure (altimeter): 29.76 inches Hg (1008.0 mb)
Winds: from the SW (230 degrees) at 9 MPH (8 knots; 4.1 m/s)
Visibility: 6 or more miles (10+ km)
Ceiling: at least 12,000 feet AGL
Clouds: scattered clouds at 2500 feet AGL
scattered clouds at 8000 feet AGL
Weather: no significant weather observed at this time

METAR text: LTAC 020550Z 21005KT 190V250 9999 SCT025 BKN080 13/08 Q1008 NOSIG RMK RWY21L 18006KT 150V240 RWY03L 18005KT RWY21R 20008KT
Conditions at: LTAC (ANKARA/ESENBOGA , TR) observed 0550 UTC 02 June 2020
Temperature: 13.0°C (55°F)
Dewpoint: 8.0°C (46°F) [RH = 72%]
Pressure (altimeter): 29.76 inches Hg (1008.0 mb)
Winds: from the SSW (210 degrees) at 6 MPH (5 knots; 2.6 m/s)
Visibility: 6 or more miles (10+ km)
Ceiling: 8000 feet AGL
Clouds: scattered clouds at 2500 feet AGL
broken clouds at 8000 feet AGL
Weather: no significant weather observed at this time

Forecast for: LTAC (ANKARA/ESENBOGA , TR)
Text: TAF LTAC 031640Z 0318/0418 VRB02KT 9999 SCT040 SCT100
Forecast period: 1800 UTC 03 June 2020 to 0600 UTC 04 June 2020
Forecast type: FROM: standard forecast or significant change
Winds: variable direction winds at 2 MPH (2 knots; 1.0 m/s)
Visibility: 6 or more miles 10+ km)
Ceiling: at least 12,000 feet AGL
Clouds: scattered clouds at 4000 feet AGL
scattered clouds at 10000 feet AGL
Weather: no significant weather forecast for this period
Text: PROB30
Forecast period: 2100 UTC 03 June 2020 to 0100 UTC 04 June 2020
Forecast type: TEMPORARY: The following changes expected for less than half the time period
Visibility: missing
Ceiling: 3000 feet AGL
Clouds: broken clouds at 3000 feet AGL
broken clouds at 8000 feet AGL
Weather: -SHRA  (light rain showers)
Text: TEMPO 0321/0401 -SHRA BKN030 BKN080
Forecast period: 0600 to 1600 UTC 04 June 2020
Forecast type: BECOMING: Conditions expected to become as follows by 0800 UTC 04 June 2020
Winds: from the W (260 degrees) at 14 MPH (12 knots; 6.2 m/s)
Visibility: 6 or more miles 10+ km)
Ceiling: at least 12,000 feet AGL
Clouds: scattered clouds at 4000 feet AGL
scattered clouds at 10000 feet AGL
Weather: no significant weather forecast for this period
Text: BECMG 0406/0408 26012KT
Forecast period: 1600 to 1800 UTC 04 June 2020
Forecast type: BECOMING: Conditions expected to become as follows by 1800 UTC 04 June 2020
Winds: variable direction winds at 2 MPH (2 knots; 1.0 m/s)
Visibility: 6 or more miles 10+ km)
Ceiling: unknown
Clouds: missing
Weather: NSW  (no significant weather)